createdAt,value
2018-03-15T00:01:25.356Z,10.47
2018-03-15T00:03:53.295Z,13.23
2018-03-15T00:06:22.963Z,12.67
2018-03-15T00:08:50.812Z,12.90
2018-03-15T00:11:18.972Z,15.77
2018-03-15T00:13:46.978Z,15.53
2018-03-15T00:16:14.874Z,13.97
2018-03-15T00:18:43.626Z,14.10
2018-03-15T00:21:11.624Z,14.90
2018-03-15T00:23:40.030Z,13.57
2018-03-15T00:26:07.993Z,13.40
2018-03-15T00:28:36.734Z,14.63
2018-03-15T00:31:05.477Z,15.43
2018-03-15T00:33:33.310Z,13.43
2018-03-15T00:36:01.694Z,17.10
2018-03-15T00:38:30.332Z,13.50
2018-03-15T00:40:58.182Z,12.40
2018-03-15T00:43:29.663Z,13.80
2018-03-15T00:45:57.671Z,12.30
2018-03-15T00:48:25.652Z,12.90
2018-03-15T00:50:54.360Z,12.50
2018-03-15T00:53:23.022Z,11.30
2018-03-15T00:55:50.970Z,12.53
2018-03-15T00:58:18.947Z,13.27
2018-03-15T01:00:46.948Z,12.13
2018-03-15T01:03:17.794Z,10.40
2018-03-15T01:05:45.752Z,11.50
2018-03-15T01:08:13.815Z,15.43
2018-03-15T01:10:42.388Z,11.93
2018-03-15T01:13:10.986Z,11.13
2018-03-15T01:15:38.810Z,11.13
2018-03-15T01:18:07.374Z,12.67
2018-03-15T01:20:37.810Z,14.30
2018-03-15T01:23:06.620Z,11.40
2018-03-15T01:25:34.618Z,12.43
2018-03-15T01:28:02.364Z,12.13
2018-03-15T01:30:30.177Z,12.43
2018-03-15T01:32:57.987Z,11.67
2018-03-15T01:35:26.468Z,10.80
2018-03-15T01:37:54.298Z,11.33
2018-03-15T01:40:22.102Z,11.40
2018-03-15T01:42:49.798Z,11.87
2018-03-15T01:45:18.488Z,11.37
2018-03-15T01:47:46.314Z,11.83
2018-03-15T01:50:14.188Z,11.70
2018-03-15T01:52:42.076Z,12.07
2018-03-15T01:55:09.994Z,11.93
2018-03-15T01:57:37.935Z,12.90
2018-03-15T02:00:06.034Z,12.87
2018-03-15T02:02:34.088Z,13.73
2018-03-15T02:05:01.981Z,16.77
2018-03-15T02:07:29.902Z,14.27
2018-03-15T02:09:58.918Z,13.30
2018-03-15T02:12:27.196Z,15.90
2018-03-15T02:14:55.108Z,14.00
2018-03-15T02:17:23.075Z,13.50
2018-03-15T02:19:50.887Z,13.93
2018-03-15T02:22:18.556Z,17.60
2018-03-15T02:24:47.028Z,15.13
2018-03-15T02:27:15.110Z,18.43
2018-03-15T02:29:43.080Z,14.57
2018-03-15T02:32:11.181Z,14.83
2018-03-15T02:34:39.138Z,13.73
2018-03-15T02:37:07.128Z,14.67
2018-03-15T02:39:35.197Z,14.93
2018-03-15T02:42:03.151Z,12.53
2018-03-15T02:44:31.061Z,13.40
2018-03-15T02:46:59.627Z,14.27
2018-03-15T02:49:27.482Z,11.90
2018-03-15T02:51:55.358Z,14.63
2018-03-15T02:54:23.138Z,11.37
2018-03-15T02:56:50.903Z,12.33
2018-03-15T02:59:20.890Z,12.87
2018-03-15T03:01:49.634Z,11.73
2018-03-15T03:04:17.716Z,11.30
2018-03-15T03:06:46.596Z,11.67
2018-03-15T03:09:15.513Z,12.50
2018-03-15T03:11:43.825Z,11.23
2018-03-15T03:14:11.767Z,13.70
2018-03-15T03:16:39.768Z,10.40
2018-03-15T03:19:08.152Z,12.83
2018-03-15T03:21:38.038Z,11.13
2018-03-15T03:24:06.070Z,10.40
2018-03-15T03:26:34.994Z,10.13
2018-03-15T03:29:02.887Z,9.60
2018-03-15T03:31:30.866Z,8.57
2018-03-15T03:33:58.814Z,10.00
2018-03-15T03:36:26.674Z,8.97
2018-03-15T03:38:56.419Z,9.03
2018-03-15T03:41:24.184Z,9.50
2018-03-15T03:43:52.050Z,11.60
2018-03-15T03:46:19.878Z,11.97
2018-03-15T03:48:48.826Z,8.90
2018-03-15T03:51:16.512Z,8.73
2018-03-15T03:53:44.320Z,9.50
2018-03-15T03:56:12.156Z,9.70
2018-03-15T03:58:40.832Z,9.70
2018-03-15T04:01:09.491Z,9.57
2018-03-15T04:03:37.324Z,12.27
2018-03-15T04:06:05.999Z,9.47
2018-03-15T04:08:34.619Z,10.40
2018-03-15T04:11:02.486Z,9.80
2018-03-15T04:13:32.604Z,9.50
2018-03-15T04:16:00.630Z,10.50
2018-03-15T04:18:30.396Z,10.70
2018-03-15T04:21:01.272Z,11.07
2018-03-15T04:23:29.014Z,11.93
2018-03-15T04:25:56.922Z,10.77
2018-03-15T04:28:26.269Z,10.87
2018-03-15T04:30:54.910Z,10.87
2018-03-15T04:33:27.474Z,11.27
2018-03-15T04:35:55.402Z,9.70
2018-03-15T04:38:25.568Z,12.13
2018-03-15T04:40:54.077Z,10.90
2018-03-15T04:43:24.400Z,12.10
2018-03-15T04:45:52.480Z,11.23
2018-03-15T04:48:23.281Z,13.30
2018-03-15T04:50:52.104Z,11.13
2018-03-15T04:53:20.125Z,11.47
2018-03-15T04:55:48.141Z,14.03
2018-03-15T04:58:16.774Z,12.83
2018-03-15T05:00:46.149Z,12.10
2018-03-15T05:03:16.588Z,11.57
2018-03-15T05:05:45.532Z,11.60
2018-03-15T05:08:15.160Z,20.97
2018-03-15T05:10:45.254Z,11.70
2018-03-15T05:13:14.063Z,10.67
2018-03-15T05:15:43.654Z,11.83
2018-03-15T05:18:12.548Z,11.93
2018-03-15T05:20:42.272Z,11.13
2018-03-15T05:23:11.158Z,11.23
2018-03-15T05:25:39.088Z,11.37
2018-03-15T05:28:15.700Z,11.00
2018-03-15T05:30:45.354Z,12.00
2018-03-15T05:33:15.282Z,12.27
2018-03-15T05:35:43.168Z,14.87
2018-03-15T05:38:16.585Z,11.30
2018-03-15T05:40:44.374Z,12.63
2018-03-15T05:43:12.446Z,13.77
2018-03-15T05:45:40.552Z,12.77
2018-03-15T05:48:08.652Z,11.13
2018-03-15T05:50:36.612Z,11.40
2018-03-15T05:53:06.149Z,11.17
2018-03-15T05:55:34.172Z,11.00
2018-03-15T05:58:02.287Z,10.30
2018-03-15T06:00:30.258Z,11.30
2018-03-15T06:03:06.534Z,10.60
2018-03-15T06:05:34.404Z,11.13
2018-03-15T06:08:02.316Z,12.37
2018-03-15T06:10:30.325Z,12.57
2018-03-15T06:12:58.186Z,12.53
2018-03-15T06:15:26.158Z,13.20
2018-03-15T06:17:54.716Z,11.57
2018-03-15T06:20:22.737Z,11.17
2018-03-15T06:22:51.481Z,11.30
2018-03-15T06:25:19.417Z,11.30
2018-03-15T06:27:47.376Z,10.83
2018-03-15T06:30:15.272Z,11.17
2018-03-15T06:35:17.598Z,11.23
2018-03-15T06:37:45.503Z,12.27
2018-03-15T06:40:15.236Z,9.83
2018-03-15T06:42:43.272Z,11.50
2018-03-15T06:45:11.191Z,11.13
2018-03-15T06:47:43.324Z,12.00
2018-03-15T06:50:11.121Z,11.57
2018-03-15T06:52:39.157Z,11.77
2018-03-15T06:55:07.539Z,10.93
2018-03-15T06:57:35.725Z,11.63
2018-03-15T07:00:04.813Z,14.13
2018-03-15T07:02:32.757Z,11.93
2018-03-15T07:05:00.799Z,13.00
2018-03-15T07:07:29.177Z,11.93
2018-03-15T07:09:57.954Z,11.17
2018-03-15T07:12:25.877Z,11.87
2018-03-15T07:14:53.920Z,12.33
2018-03-15T07:17:21.851Z,13.03
2018-03-15T07:19:50.049Z,12.23
2018-03-15T07:22:17.911Z,12.13
2018-03-15T07:24:45.866Z,12.73
2018-03-15T07:27:13.741Z,12.70
2018-03-15T07:29:41.659Z,11.93
2018-03-15T07:32:09.716Z,10.53
2018-03-15T07:34:37.595Z,12.40
2018-03-15T07:37:05.295Z,12.27
2018-03-15T07:39:33.917Z,12.37
2018-03-15T07:42:01.898Z,13.77
2018-03-15T07:44:30.321Z,13.20
2018-03-15T07:46:58.338Z,13.07
2018-03-15T07:49:27.178Z,13.30
2018-03-15T07:51:55.163Z,12.53
2018-03-15T07:54:23.186Z,12.87
2018-03-15T07:56:51.034Z,13.07
2018-03-15T07:59:20.006Z,13.00
2018-03-15T08:01:48.058Z,12.93
2018-03-15T08:04:16.116Z,17.63
2018-03-15T08:06:44.040Z,14.80
2018-03-15T08:09:11.938Z,13.83
2018-03-15T08:11:39.841Z,12.87
2018-03-15T08:14:07.934Z,14.30
2018-03-15T08:16:36.624Z,14.87
2018-03-15T08:19:05.400Z,14.17
2018-03-15T08:21:33.270Z,13.43
2018-03-15T08:24:01.360Z,13.90
2018-03-15T08:26:29.058Z,13.80
2018-03-15T08:28:56.899Z,14.77
2018-03-15T08:31:24.824Z,14.03
2018-03-15T08:33:52.738Z,13.73
2018-03-15T08:36:20.757Z,13.30
2018-03-15T08:38:48.850Z,13.90
2018-03-15T08:41:16.742Z,14.57
2018-03-15T08:43:44.787Z,13.73
2018-03-15T08:46:12.708Z,16.50
2018-03-15T08:48:40.579Z,13.90
2018-03-15T08:51:08.610Z,15.10
2018-03-15T08:53:37.336Z,14.83
2018-03-15T08:56:05.215Z,15.53
2018-03-15T08:58:33.143Z,17.77
2018-03-15T09:01:00.983Z,17.70
2018-03-15T09:03:28.875Z,15.80
2018-03-15T09:05:57.247Z,18.90
2018-03-15T09:08:25.352Z,17.17
2018-03-15T09:10:53.361Z,19.37
2018-03-15T09:13:21.454Z,17.33
2018-03-15T09:15:50.224Z,18.47
2018-03-15T09:18:18.562Z,17.10
2018-03-15T09:20:47.231Z,17.47
2018-03-15T09:23:16.412Z,23.50
2018-03-15T09:25:44.353Z,19.70
2018-03-15T09:28:12.378Z,18.77
2018-03-15T09:30:40.451Z,19.07
2018-03-15T09:33:08.504Z,18.07
2018-03-15T09:35:36.556Z,20.77
2018-03-15T09:38:04.522Z,20.20
2018-03-15T09:40:33.342Z,20.20
2018-03-15T09:43:02.188Z,19.23
2018-03-15T09:45:30.252Z,18.80
2018-03-15T09:47:59.055Z,18.13
2018-03-15T09:50:26.984Z,21.17
2018-03-15T09:52:55.714Z,18.73
2018-03-15T09:55:24.514Z,18.53
2018-03-15T09:57:52.774Z,19.77
2018-03-15T10:00:20.634Z,20.57
2018-03-15T10:02:48.905Z,19.83
2018-03-15T10:05:16.847Z,21.13
2018-03-15T10:07:44.790Z,17.97
2018-03-15T10:10:13.074Z,19.30
2018-03-15T10:12:41.032Z,19.13
2018-03-15T10:15:09.032Z,18.53
2018-03-15T10:17:37.415Z,18.27
2018-03-15T10:20:05.350Z,17.90
2018-03-15T10:22:33.538Z,19.77
2018-03-15T10:25:01.568Z,17.20
2018-03-15T10:27:30.403Z,17.30
2018-03-15T10:29:58.563Z,18.47
2018-03-15T10:32:26.262Z,16.50
2018-03-15T10:35:00.463Z,18.83
2018-03-15T10:37:28.500Z,19.30
2018-03-15T10:39:56.346Z,19.00
2018-03-15T10:42:24.226Z,17.47
2018-03-15T10:44:52.081Z,17.40
2018-03-15T10:47:19.948Z,17.83
2018-03-15T10:49:47.960Z,17.50
2018-03-15T10:52:15.812Z,19.50
2018-03-15T10:54:43.603Z,19.27
2018-03-15T10:57:12.421Z,18.60
2018-03-15T10:59:41.143Z,17.33
2018-03-15T11:02:09.223Z,20.57
2018-03-15T11:07:40.492Z,18.00
2018-03-15T11:10:09.902Z,23.83
2018-03-15T11:12:37.923Z,20.63
2018-03-15T11:15:05.947Z,17.67
2018-03-15T11:17:34.501Z,18.00
2018-03-15T11:20:02.712Z,20.87
2018-03-15T11:22:30.784Z,17.37
2018-03-15T11:24:58.764Z,25.10
2018-03-15T11:27:26.758Z,19.87
2018-03-15T11:29:54.686Z,18.40
2018-03-15T11:32:22.677Z,18.77
2018-03-15T11:34:50.791Z,16.97
2018-03-15T11:37:18.901Z,17.20
2018-03-15T11:39:48.240Z,19.07
2018-03-15T11:42:16.315Z,16.83
2018-03-15T11:44:44.191Z,15.70
2018-03-15T11:47:12.031Z,15.47
2018-03-15T11:49:40.012Z,18.07
2018-03-15T11:52:08.985Z,16.23
2018-03-15T11:54:37.710Z,15.63
2018-03-15T11:57:05.623Z,15.97
2018-03-15T11:59:34.287Z,18.73
2018-03-15T12:02:02.289Z,20.33
2018-03-15T12:04:31.159Z,15.27
2018-03-15T12:06:59.028Z,17.13
2018-03-15T12:09:26.834Z,17.60
2018-03-15T12:11:55.546Z,18.57
2018-03-15T12:14:24.505Z,17.33
2018-03-15T12:16:52.583Z,18.77
2018-03-15T12:19:20.544Z,17.57
2018-03-15T12:21:48.679Z,19.30
2018-03-15T12:24:16.730Z,17.23
2018-03-15T12:26:44.959Z,17.37
2018-03-15T12:29:12.975Z,27.80
2018-03-15T12:31:41.650Z,17.37
2018-03-15T12:34:09.799Z,24.40
2018-03-15T12:36:37.921Z,20.07
2018-03-15T12:39:05.719Z,18.43
2018-03-15T12:41:33.491Z,17.87
2018-03-15T12:44:01.492Z,19.10
2018-03-15T12:46:29.420Z,15.57
2018-03-15T12:48:57.364Z,17.73
2018-03-15T12:51:25.327Z,16.80
2018-03-15T12:53:53.062Z,17.93
2018-03-15T12:56:20.977Z,19.40
2018-03-15T12:58:48.997Z,19.87
2018-03-15T13:01:17.034Z,19.00
2018-03-15T13:03:44.925Z,19.93
2018-03-15T13:06:13.061Z,19.00
2018-03-15T13:08:40.914Z,21.33
2018-03-15T13:11:08.862Z,23.33
2018-03-15T13:13:36.809Z,26.00
2018-03-15T13:16:04.820Z,39.03
2018-03-15T13:18:32.891Z,54.50
2018-03-15T13:21:00.786Z,23.20
2018-03-15T13:23:28.687Z,40.30
2018-03-15T13:25:56.498Z,46.90
2018-03-15T13:28:24.527Z,21.93
2018-03-15T13:30:52.530Z,20.10
2018-03-15T13:33:20.558Z,21.20
2018-03-15T13:35:49.273Z,19.30
2018-03-15T13:38:17.282Z,18.80
2018-03-15T13:40:45.082Z,18.47
2018-03-15T13:43:12.962Z,23.87
2018-03-15T13:45:40.953Z,17.83
2018-03-15T13:48:08.909Z,17.93
2018-03-15T13:50:36.775Z,19.67
2018-03-15T13:53:04.775Z,18.13
2018-03-15T13:55:32.731Z,16.93
2018-03-15T13:58:00.707Z,16.00
2018-03-15T14:00:31.779Z,18.10
2018-03-15T14:02:59.652Z,16.47
2018-03-15T14:05:28.003Z,17.17
2018-03-15T14:07:56.086Z,19.00
2018-03-15T14:10:24.049Z,16.60
2018-03-15T14:12:51.973Z,18.30
2018-03-15T14:15:20.626Z,16.90
2018-03-15T14:17:48.475Z,16.40
2018-03-15T14:20:16.394Z,20.40
2018-03-15T14:22:44.443Z,18.43
2018-03-15T14:25:13.741Z,15.63
2018-03-15T14:27:41.827Z,14.93
2018-03-15T14:30:10.669Z,15.00
2018-03-15T14:32:39.556Z,15.93
2018-03-15T14:35:07.510Z,15.80
2018-03-15T14:37:36.319Z,16.13
2018-03-15T14:40:04.531Z,16.27
2018-03-15T14:42:35.002Z,16.53
2018-03-15T14:45:03.665Z,18.47
2018-03-15T14:47:32.501Z,17.63
2018-03-15T14:50:00.396Z,15.73
2018-03-15T14:52:28.391Z,18.20
2018-03-15T14:54:56.532Z,15.87
2018-03-15T14:57:24.443Z,19.20
2018-03-15T14:59:53.034Z,22.33
2018-03-15T15:02:20.996Z,18.80
2018-03-15T15:04:49.700Z,29.57
2018-03-15T15:07:18.368Z,17.50
2018-03-15T15:09:46.134Z,19.80
2018-03-15T15:12:14.121Z,19.47
2018-03-15T15:14:42.087Z,20.17
2018-03-15T15:17:10.828Z,18.30
2018-03-15T15:19:39.587Z,19.87
2018-03-15T15:22:07.549Z,19.90
2018-03-15T15:24:35.415Z,19.53
2018-03-15T15:27:03.553Z,26.87
2018-03-15T15:29:31.477Z,24.37
2018-03-15T15:31:59.907Z,19.83
2018-03-15T15:34:27.884Z,21.83
2018-03-15T15:36:55.858Z,21.87
2018-03-15T15:39:23.772Z,21.83
2018-03-15T15:41:51.697Z,20.90
2018-03-15T15:44:19.393Z,20.20
2018-03-15T15:46:47.415Z,21.83
2018-03-15T15:49:15.267Z,24.10
2018-03-15T15:51:43.181Z,29.93
2018-03-15T15:54:11.163Z,21.83
2018-03-15T15:56:39.066Z,22.50
2018-03-15T15:59:07.079Z,24.87
2018-03-15T16:01:37.023Z,24.33
2018-03-15T16:04:04.899Z,23.00
2018-03-15T16:06:32.646Z,22.60
2018-03-15T16:09:00.404Z,23.77
2018-03-15T16:11:28.535Z,24.83
2018-03-15T16:13:56.237Z,24.47
2018-03-15T16:16:24.288Z,24.10
2018-03-15T16:18:52.218Z,25.67
2018-03-15T16:21:20.295Z,24.33
2018-03-15T16:23:48.190Z,25.10
2018-03-15T16:26:16.856Z,25.77
2018-03-15T16:28:45.921Z,24.63
2018-03-15T16:31:13.868Z,26.27
2018-03-15T16:33:42.597Z,27.73
2018-03-15T16:36:10.547Z,27.17
2018-03-15T16:38:38.389Z,29.50
2018-03-15T16:41:06.323Z,27.50
2018-03-15T16:43:35.458Z,24.13
2018-03-15T16:46:03.691Z,30.70
2018-03-15T16:48:31.691Z,44.73
2018-03-15T16:51:00.531Z,40.97
2018-03-15T16:53:28.673Z,38.23
2018-03-15T16:55:56.667Z,34.17
2018-03-15T16:58:24.668Z,31.73
2018-03-15T17:00:52.631Z,28.53
2018-03-15T17:03:20.602Z,31.77
2018-03-15T17:05:48.754Z,33.20
2018-03-15T17:08:16.643Z,27.90
2018-03-15T17:10:44.499Z,32.10
2018-03-15T17:13:12.556Z,31.83
2018-03-15T17:15:40.510Z,29.70
2018-03-15T17:18:08.834Z,32.77
2018-03-15T17:20:36.831Z,40.70
2018-03-15T17:23:05.037Z,32.17
2018-03-15T17:25:32.963Z,34.20
2018-03-15T17:28:01.036Z,33.03
2018-03-15T17:30:28.853Z,30.13
2018-03-15T17:32:56.849Z,32.53
2018-03-15T17:35:25.577Z,31.77
2018-03-15T17:37:53.415Z,30.07
2018-03-15T17:40:21.405Z,33.00
2018-03-15T17:42:49.405Z,34.90
2018-03-15T17:45:17.607Z,33.13
2018-03-15T17:47:45.560Z,33.67
2018-03-15T17:50:13.706Z,35.83
2018-03-15T17:52:41.879Z,35.67
2018-03-15T17:55:11.016Z,37.70
2018-03-15T17:57:38.904Z,59.87
2018-03-15T18:00:07.023Z,55.00
2018-03-15T18:02:35.079Z,47.17
2018-03-15T18:05:05.651Z,40.20
2018-03-15T18:07:33.639Z,41.23
2018-03-15T18:10:01.629Z,35.47
2018-03-15T18:12:29.711Z,34.60
2018-03-15T18:14:57.619Z,34.07
2018-03-15T18:17:26.133Z,38.27
2018-03-15T18:19:54.121Z,35.23
2018-03-15T18:22:23.095Z,37.07
2018-03-15T18:24:51.073Z,35.10
2018-03-15T18:27:19.046Z,33.90
2018-03-15T18:29:46.811Z,35.13
2018-03-15T18:32:14.739Z,34.87
2018-03-15T18:34:42.691Z,33.80
2018-03-15T18:37:10.575Z,33.47
2018-03-15T18:39:38.503Z,34.30
2018-03-15T18:42:07.135Z,33.10
2018-03-15T18:44:35.049Z,32.20
2018-03-15T18:47:03.111Z,34.03
2018-03-15T18:49:31.756Z,33.73
2018-03-15T18:52:00.157Z,40.53
2018-03-15T18:54:28.430Z,32.97
2018-03-15T18:56:56.474Z,33.37
2018-03-15T18:59:24.504Z,33.23
2018-03-15T19:01:52.492Z,34.57
2018-03-15T19:04:20.403Z,32.93
2018-03-15T19:06:48.359Z,31.93
2018-03-15T19:09:16.434Z,37.23
2018-03-15T19:11:45.407Z,62.23
2018-03-15T19:14:13.537Z,68.97
2018-03-15T19:16:42.418Z,48.07
2018-03-15T19:19:10.409Z,37.83
2018-03-15T19:21:39.014Z,41.47
2018-03-15T19:24:06.887Z,38.87
2018-03-15T19:26:34.665Z,33.57
2018-03-15T19:29:02.656Z,32.47
2018-03-15T19:31:30.565Z,30.53
2018-03-15T19:33:58.697Z,30.60
2018-03-15T19:36:26.656Z,30.83
2018-03-15T19:38:54.575Z,31.33
2018-03-15T19:41:23.865Z,30.30
2018-03-15T19:43:51.753Z,30.77
2018-03-15T19:46:19.688Z,32.03
2018-03-15T19:48:49.085Z,31.37
2018-03-15T19:51:16.971Z,31.03
2018-03-15T19:53:44.990Z,30.00
2018-03-15T19:56:12.918Z,30.43
2018-03-15T19:58:41.005Z,30.03
2018-03-15T20:01:11.709Z,28.47
2018-03-15T20:03:39.759Z,36.83
2018-03-15T20:06:07.665Z,37.40
2018-03-15T20:08:35.736Z,31.53
2018-03-15T20:11:05.201Z,28.60
2018-03-15T20:13:34.050Z,32.77
2018-03-15T20:16:06.319Z,33.73
2018-03-15T20:18:39.267Z,35.40
2018-03-15T20:21:10.265Z,33.03
2018-03-15T20:23:44.344Z,27.93
2018-03-15T20:26:12.882Z,29.97
2018-03-15T20:28:46.737Z,31.10
2018-03-15T20:31:16.867Z,31.73
2018-03-15T20:33:51.000Z,30.53
2018-03-15T20:36:18.862Z,29.27
2018-03-15T20:38:50.519Z,29.13
2018-03-15T20:41:23.933Z,25.30
2018-03-15T20:43:51.773Z,28.77
2018-03-15T20:46:25.384Z,27.13
2018-03-15T20:49:08.886Z,25.97
2018-03-15T20:51:37.669Z,22.63
2018-03-15T20:54:05.603Z,24.70
2018-03-15T20:56:33.520Z,22.47
2018-03-15T20:59:01.460Z,24.63
2018-03-15T21:01:29.132Z,23.17
2018-03-15T21:03:57.648Z,23.93
2018-03-15T21:06:25.405Z,26.83
2018-03-15T21:08:53.397Z,25.73
2018-03-15T21:11:21.354Z,20.23
2018-03-15T21:13:49.260Z,20.73
2018-03-15T21:16:17.489Z,21.97
2018-03-15T21:18:45.496Z,22.60
2018-03-15T21:21:13.498Z,18.97
2018-03-15T21:23:42.696Z,21.93
2018-03-15T21:26:10.958Z,21.90
2018-03-15T21:28:39.767Z,21.03
2018-03-15T21:31:07.960Z,18.57
2018-03-15T21:33:35.762Z,20.40
2018-03-15T21:36:03.635Z,20.37
2018-03-15T21:38:31.566Z,18.47
2018-03-15T21:40:59.434Z,16.53
2018-03-15T21:43:27.267Z,15.37
2018-03-15T21:45:54.951Z,11.10
2018-03-15T21:48:22.888Z,10.77
2018-03-15T21:50:50.505Z,9.30
2018-03-15T21:53:18.489Z,8.10
2018-03-15T21:55:46.863Z,7.43
2018-03-15T21:58:14.816Z,7.00
2018-03-15T22:00:42.727Z,10.07
2018-03-15T22:03:11.628Z,11.27
2018-03-15T22:05:40.163Z,8.23
2018-03-15T22:08:08.173Z,5.97
2018-03-15T22:10:36.069Z,5.70
2018-03-15T22:13:04.005Z,8.00
2018-03-15T22:15:31.649Z,5.67
2018-03-15T22:17:59.484Z,8.83
2018-03-15T22:20:27.533Z,3.67
2018-03-15T22:22:55.327Z,5.90
2018-03-15T22:25:23.026Z,4.67
2018-03-15T22:27:50.913Z,3.07
2018-03-15T22:30:19.493Z,4.20
2018-03-15T22:32:47.291Z,6.87
2018-03-15T22:35:15.205Z,3.33
2018-03-15T22:37:43.024Z,4.27
2018-03-15T22:40:10.867Z,3.03
2018-03-15T22:42:38.812Z,2.97
2018-03-15T22:45:06.729Z,2.20
2018-03-15T22:47:34.682Z,3.53
2018-03-15T22:50:02.817Z,3.40
2018-03-15T22:52:30.818Z,8.50
2018-03-15T22:54:58.739Z,11.67
2018-03-15T22:57:26.760Z,4.23
2018-03-15T22:59:54.740Z,4.00
2018-03-15T23:02:22.663Z,3.60
2018-03-15T23:04:51.287Z,7.27
2018-03-15T23:07:19.280Z,5.13
2018-03-15T23:09:47.112Z,5.63
2018-03-15T23:12:15.119Z,3.53
2018-03-15T23:14:43.852Z,2.63
2018-03-15T23:17:12.142Z,5.80
2018-03-15T23:19:40.746Z,5.27
2018-03-15T23:22:08.759Z,3.73
2018-03-15T23:24:36.740Z,3.40
2018-03-15T23:27:04.616Z,4.33
2018-03-15T23:29:32.560Z,6.00
2018-03-15T23:32:00.363Z,4.23
2018-03-15T23:34:28.160Z,4.80
2018-03-15T23:36:56.193Z,7.00
2018-03-15T23:39:24.376Z,5.13
2018-03-15T23:41:52.347Z,3.63
2018-03-15T23:44:20.087Z,5.70
2018-03-15T23:46:47.724Z,4.97
2018-03-15T23:49:15.437Z,4.60
2018-03-15T23:51:43.344Z,4.63
2018-03-15T23:54:11.220Z,3.97
2018-03-15T23:56:39.089Z,6.30
2018-03-15T23:59:06.922Z,4.87
